Time;durP1;ratioP1;P1;durP2;ratioP2;P2;SDS_P1;SDS_P2;PMS_P1;PMS_P2;Temp;Humidity;BMP_temperature;BMP_pressure;BME280_temperature;BME280_humidity;BME280_pressure;Samples;Min_cycle;Max_cycle;Signal;HPM_P1;HPM_P2
2022/04/13 00:00:02;;;;;;;8.90;8.00;;;;;;;;;;5092490;28;20415;-83
2022/04/13 00:02:28;;;;;;;8.55;7.28;;;;;;;;;;5100159;28;20463;-83
2022/04/13 00:04:54;;;;;;;8.50;7.40;;;;;;;;;;5088330;28;20468;-82
2022/04/13 00:07:20;;;;;;;7.90;6.78;;;;;;;;;;5086184;28;20431;-82
2022/04/13 00:09:48;;;;;;;9.50;6.72;;;;;;;;;;5085398;28;20411;-83
2022/04/13 00:12:14;;;;;;;8.52;7.00;;;;;;;;;;5096158;28;20433;-81
2022/04/13 00:14:40;;;;;;;9.00;7.60;;;;;;;;;;5090559;28;20430;-83
2022/04/13 00:17:07;;;;;;;9.93;7.32;;;;;;;;;;5089279;28;20421;-82
2022/04/13 00:19:33;;;;;;;9.02;7.20;;;;;;;;;;5089302;28;20432;-83
2022/04/13 00:22:00;;;;;;;9.90;6.90;;;;;;;;;;5090962;28;20439;-82
2022/04/13 00:24:26;;;;;;;9.82;7.22;;;;;;;;;;5089241;28;20575;-84
2022/04/13 00:26:55;;;;;;;9.13;7.30;;;;;;;;;;5092390;28;20599;-82
2022/04/13 00:29:21;;;;;;;8.85;7.55;;;;;;;;;;5089457;28;20606;-82
2022/04/13 00:31:47;;;;;;;8.87;7.40;;;;;;;;;;5088334;28;20412;-82
2022/04/13 00:34:13;;;;;;;9.20;7.43;;;;;;;;;;5093703;28;20433;-83
2022/04/13 00:36:40;;;;;;;10.30;8.00;;;;;;;;;;5090943;28;20982;-82
2022/04/13 00:39:06;;;;;;;8.50;7.53;;;;;;;;;;5090707;28;20423;-82
2022/04/13 00:41:32;;;;;;;8.73;7.60;;;;;;;;;;5088896;28;20469;-83
2022/04/13 00:44:04;;;;;;;8.63;7.68;;;;;;;;;;5085969;28;20458;-80
2022/04/13 00:46:30;;;;;;;11.35;7.55;;;;;;;;;;5081754;28;20473;-82
2022/04/13 00:48:57;;;;;;;10.65;8.20;;;;;;;;;;5089646;28;20433;-82
2022/04/13 00:51:23;;;;;;;11.60;8.10;;;;;;;;;;5089281;28;20414;-83
2022/04/13 00:53:50;;;;;;;8.20;7.28;;;;;;;;;;5088811;28;20410;-83
2022/04/13 00:56:20;;;;;;;10.90;7.60;;;;;;;;;;5089387;28;20422;-83
2022/04/13 00:58:48;;;;;;;11.02;8.55;;;;;;;;;;5087000;28;21136;-82
2022/04/13 01:01:16;;;;;;;12.55;10.70;;;;;;;;;;5084535;28;20477;-83
2022/04/13 01:03:43;;;;;;;13.88;11.65;;;;;;;;;;5083703;28;20792;-83
2022/04/13 01:06:10;;;;;;;15.90;13.27;;;;;;;;;;5080207;28;20418;-83
2022/04/13 01:08:37;;;;;;;19.00;15.77;;;;;;;;;;5086214;28;20969;-83
2022/04/13 01:11:03;;;;;;;17.85;14.57;;;;;;;;;;5083708;28;20999;-83
2022/04/13 01:13:30;;;;;;;18.05;14.40;;;;;;;;;;5084340;28;20484;-83
2022/04/13 01:15:56;;;;;;;20.42;14.45;;;;;;;;;;5081184;28;20451;-83
2022/04/13 01:18:24;;;;;;;17.30;14.77;;;;;;;;;;5087293;28;20475;-83
2022/04/13 01:20:52;;;;;;;16.20;13.23;;;;;;;;;;5085179;28;20424;-83
2022/04/13 01:23:20;;;;;;;16.65;13.20;;;;;;;;;;5087863;28;20463;-83
2022/04/13 01:25:48;;;;;;;16.27;12.60;;;;;;;;;;5083676;28;20937;-83
2022/04/13 01:28:14;;;;;;;14.23;10.90;;;;;;;;;;5086954;28;20491;-82
2022/04/13 01:30:40;;;;;;;17.27;11.17;;;;;;;;;;5082107;28;20423;-83
2022/04/13 01:33:07;;;;;;;14.27;9.90;;;;;;;;;;5084949;28;20869;-82
2022/04/13 01:35:33;;;;;;;12.20;9.65;;;;;;;;;;5091410;28;20416;-83
2022/04/13 01:37:59;;;;;;;13.70;9.50;;;;;;;;;;5085487;28;20485;-81
2022/04/13 01:40:27;;;;;;;12.00;9.10;;;;;;;;;;5087681;28;20408;-82
2022/04/13 01:42:53;;;;;;;11.98;9.98;;;;;;;;;;5088221;28;20919;-83
2022/04/13 01:45:20;;;;;;;12.10;9.45;;;;;;;;;;5083496;28;20444;-83
2022/04/13 01:47:47;;;;;;;14.63;8.82;;;;;;;;;;5085682;28;20506;-82
2022/04/13 01:50:14;;;;;;;12.32;8.73;;;;;;;;;;5082144;28;20426;-81
2022/04/13 01:52:40;;;;;;;13.75;9.07;;;;;;;;;;5084439;28;20449;-81
2022/04/13 01:55:07;;;;;;;10.77;8.80;;;;;;;;;;5086661;28;20930;-82
2022/04/13 01:57:34;;;;;;;11.55;8.13;;;;;;;;;;5086577;28;20837;-83
2022/04/13 02:00:00;;;;;;;10.88;7.72;;;;;;;;;;5087055;28;20821;-82
2022/04/13 02:02:27;;;;;;;11.10;8.15;;;;;;;;;;5086574;28;20456;-83
2022/04/13 02:04:53;;;;;;;13.70;8.40;;;;;;;;;;5085684;28;20422;-82
2022/04/13 02:07:19;;;;;;;12.03;8.40;;;;;;;;;;5082161;28;20479;-83
2022/04/13 02:09:45;;;;;;;13.18;8.65;;;;;;;;;;5087827;28;20811;-81
2022/04/13 02:12:11;;;;;;;11.35;7.85;;;;;;;;;;5084550;28;20435;-83
2022/04/13 02:14:39;;;;;;;12.13;8.15;;;;;;;;;;5086233;28;20936;-82
2022/04/13 02:17:05;;;;;;;12.82;7.75;;;;;;;;;;5090081;28;20463;-83
2022/04/13 02:19:31;;;;;;;10.68;7.78;;;;;;;;;;5087304;28;20427;-83
2022/04/13 02:21:58;;;;;;;11.82;7.60;;;;;;;;;;5084382;28;20523;-82
2022/04/13 02:24:24;;;;;;;10.10;7.55;;;;;;;;;;5085731;28;20480;-83
2022/04/13 02:26:50;;;;;;;10.02;7.30;;;;;;;;;;5086847;28;20480;-84
2022/04/13 02:29:17;;;;;;;10.00;7.25;;;;;;;;;;5081269;28;20422;-83
2022/04/13 02:31:45;;;;;;;9.85;7.50;;;;;;;;;;5083565;28;20424;-83
2022/04/13 02:34:11;;;;;;;9.20;6.68;;;;;;;;;;5083938;28;20447;-82
2022/04/13 02:36:37;;;;;;;9.07;7.05;;;;;;;;;;5084633;28;20552;-82
2022/04/13 02:39:03;;;;;;;10.90;7.75;;;;;;;;;;5090988;28;20419;-84
2022/04/13 02:41:30;;;;;;;8.43;7.10;;;;;;;;;;5087326;28;20992;-83
2022/04/13 02:43:56;;;;;;;10.20;7.80;;;;;;;;;;5083470;28;20790;-83
2022/04/13 02:46:22;;;;;;;9.77;7.30;;;;;;;;;;5083755;28;20471;-82
2022/04/13 02:48:50;;;;;;;9.48;7.90;;;;;;;;;;5085780;28;20433;-82
2022/04/13 02:51:16;;;;;;;9.93;7.22;;;;;;;;;;5083776;28;20918;-83
2022/04/13 02:53:42;;;;;;;9.98;7.65;;;;;;;;;;5082708;28;20463;-83
2022/04/13 02:56:08;;;;;;;9.90;7.40;;;;;;;;;;5086074;28;20426;-83
2022/04/13 02:58:35;;;;;;;11.43;7.68;;;;;;;;;;5083657;28;20438;-80
2022/04/13 03:01:03;;;;;;;11.23;8.32;;;;;;;;;;5081879;28;20871;-83
2022/04/13 03:03:29;;;;;;;10.40;7.80;;;;;;;;;;5084098;28;20885;-81
2022/04/13 03:05:57;;;;;;;9.00;8.10;;;;;;;;;;5082632;28;20998;-82
2022/04/13 03:08:23;;;;;;;10.18;7.70;;;;;;;;;;5081509;28;20427;-83
2022/04/13 03:10:49;;;;;;;13.23;8.00;;;;;;;;;;5083149;28;20478;-83
2022/04/13 03:13:15;;;;;;;11.25;8.50;;;;;;;;;;5085775;28;20425;-83
2022/04/13 03:15:42;;;;;;;10.10;8.00;;;;;;;;;;5085624;28;20423;-82
2022/04/13 03:18:08;;;;;;;10.65;7.28;;;;;;;;;;5086272;28;20425;-81
2022/04/13 03:20:35;;;;;;;11.27;7.70;;;;;;;;;;5081471;28;20417;-82
2022/04/13 03:23:03;;;;;;;11.30;8.05;;;;;;;;;;5083987;28;20486;-82
2022/04/13 03:25:29;;;;;;;12.80;8.13;;;;;;;;;;5082427;28;20407;-82
2022/04/13 03:27:55;;;;;;;11.93;7.93;;;;;;;;;;5087297;28;20435;-82
2022/04/13 03:30:23;;;;;;;9.90;7.53;;;;;;;;;;5083122;28;20424;-83
2022/04/13 03:32:50;;;;;;;9.52;8.05;;;;;;;;;;5082470;28;20431;-83
2022/04/13 03:35:16;;;;;;;9.48;7.68;;;;;;;;;;5083597;28;20430;-82
2022/04/13 03:37:42;;;;;;;10.00;7.90;;;;;;;;;;5087401;28;20438;-83
2022/04/13 03:40:11;;;;;;;9.43;8.07;;;;;;;;;;5084327;28;20423;-82
2022/04/13 03:42:38;;;;;;;9.25;7.40;;;;;;;;;;5085866;28;20836;-81
2022/04/13 03:45:04;;;;;;;12.70;8.05;;;;;;;;;;5085937;28;20418;-81
2022/04/13 03:47:31;;;;;;;15.30;8.48;;;;;;;;;;5085634;28;20952;-82
2022/04/13 03:49:57;;;;;;;10.80;7.80;;;;;;;;;;5092625;28;20416;-82
2022/04/13 03:52:23;;;;;;;13.18;8.30;;;;;;;;;;5091456;28;20425;-82
2022/04/13 03:54:50;;;;;;;11.52;7.95;;;;;;;;;;5087679;28;20406;-82
2022/04/13 03:57:17;;;;;;;11.68;8.40;;;;;;;;;;5090173;28;21198;-83
2022/04/13 03:59:43;;;;;;;15.15;8.38;;;;;;;;;;5087744;28;20838;-82
2022/04/13 04:02:10;;;;;;;12.05;8.02;;;;;;;;;;5090399;28;20487;-82
2022/04/13 04:04:36;;;;;;;12.13;8.90;;;;;;;;;;5084109;28;20517;-81
2022/04/13 04:07:02;;;;;;;13.73;8.93;;;;;;;;;;5087333;28;20428;-82
2022/04/13 04:09:29;;;;;;;11.80;9.00;;;;;;;;;;5086975;28;20427;-81
2022/04/13 04:11:55;;;;;;;14.10;8.90;;;;;;;;;;5085174;28;21082;-83
2022/04/13 04:14:22;;;;;;;10.40;7.53;;;;;;;;;;5083352;28;20892;-82
2022/04/13 04:16:49;;;;;;;13.07;8.17;;;;;;;;;;5084538;28;20485;-82
2022/04/13 04:19:15;;;;;;;10.82;8.77;;;;;;;;;;5090183;28;20427;-80
2022/04/13 04:21:41;;;;;;;13.77;8.95;;;;;;;;;;5088889;28;20420;-82
2022/04/13 04:24:08;;;;;;;11.70;9.15;;;;;;;;;;5088929;28;20430;-82
2022/04/13 04:26:34;;;;;;;14.60;8.98;;;;;;;;;;5084390;28;20836;-82
2022/04/13 04:29:00;;;;;;;12.00;8.80;;;;;;;;;;5089396;28;20498;-82
2022/04/13 04:34:08;;;;;;;11.95;8.35;;;;;;;;;;5088841;28;20427;-82
2022/04/13 04:36:34;;;;;;;9.98;8.20;;;;;;;;;;5088338;28;20960;-81
2022/04/13 04:39:00;;;;;;;12.30;9.25;;;;;;;;;;5089731;28;20440;-82
2022/04/13 04:41:27;;;;;;;13.00;9.57;;;;;;;;;;5090330;28;20471;-82
2022/04/13 04:43:53;;;;;;;14.98;8.85;;;;;;;;;;5097794;28;20457;-81
2022/04/13 04:46:19;;;;;;;10.75;9.25;;;;;;;;;;5086181;28;20411;-82
2022/04/13 04:48:47;;;;;;;11.93;9.27;;;;;;;;;;5090344;28;20821;-81
2022/04/13 04:51:13;;;;;;;11.20;9.00;;;;;;;;;;5088595;28;20757;-82
2022/04/13 04:53:40;;;;;;;11.98;9.30;;;;;;;;;;5090472;28;20430;-82
2022/04/13 04:56:06;;;;;;;13.60;9.70;;;;;;;;;;5088296;28;20413;-82
2022/04/13 04:58:32;;;;;;;9.95;8.95;;;;;;;;;;5087616;28;20439;-82
2022/04/13 05:00:58;;;;;;;11.77;9.48;;;;;;;;;;5089477;28;20471;-81
2022/04/13 05:03:25;;;;;;;12.60;8.23;;;;;;;;;;5094799;28;20524;-81
2022/04/13 05:05:52;;;;;;;10.15;9.05;;;;;;;;;;5094050;28;20422;-82
2022/04/13 05:08:18;;;;;;;14.82;10.05;;;;;;;;;;5092347;28;20488;-81
2022/04/13 05:10:50;;;;;;;11.23;8.95;;;;;;;;;;5088611;28;20410;-80
2022/04/13 05:13:17;;;;;;;11.35;8.70;;;;;;;;;;5098367;28;20884;-81
2022/04/13 05:15:43;;;;;;;13.07;9.20;;;;;;;;;;5093822;28;20847;-82
2022/04/13 05:18:09;;;;;;;9.98;8.40;;;;;;;;;;5096629;28;20471;-80
2022/04/13 05:20:35;;;;;;;11.00;8.93;;;;;;;;;;5088309;28;20484;-82
2022/04/13 05:23:03;;;;;;;12.30;9.17;;;;;;;;;;5087902;28;20412;-82
2022/04/13 05:25:29;;;;;;;10.40;8.43;;;;;;;;;;5086891;28;20471;-81
2022/04/13 05:27:55;;;;;;;13.25;9.55;;;;;;;;;;5088487;28;20913;-81
2022/04/13 05:30:22;;;;;;;10.35;8.60;;;;;;;;;;5084362;28;20447;-81
2022/04/13 05:32:49;;;;;;;11.60;8.45;;;;;;;;;;5087622;28;20947;-81
2022/04/13 05:35:15;;;;;;;11.00;8.67;;;;;;;;;;5088659;28;20410;-81
2022/04/13 05:37:42;;;;;;;12.55;9.07;;;;;;;;;;5087028;28;20437;-80
2022/04/13 05:40:10;;;;;;;12.50;9.10;;;;;;;;;;5088967;28;20906;-80
2022/04/13 05:42:36;;;;;;;11.93;9.50;;;;;;;;;;5093539;28;20457;-81
2022/04/13 05:45:02;;;;;;;9.85;8.38;;;;;;;;;;5092254;28;20402;-82
2022/04/13 05:47:29;;;;;;;10.68;8.18;;;;;;;;;;5088835;28;20434;-81
2022/04/13 05:49:55;;;;;;;12.32;9.10;;;;;;;;;;5086131;28;20411;-82
2022/04/13 05:52:21;;;;;;;11.48;8.57;;;;;;;;;;5089077;28;20783;-82
2022/04/13 05:54:47;;;;;;;14.20;9.77;;;;;;;;;;5104049;22;20371;-80
2022/04/13 05:57:15;;;;;;;17.60;13.38;;;;;;;;;;5061592;28;20422;-82
2022/04/13 05:59:41;;;;;;;13.80;9.90;;;;;;;;;;5064908;28;20425;-84
2022/04/13 06:02:07;;;;;;;12.30;9.90;;;;;;;;;;5064663;28;20419;-84
2022/04/13 06:04:33;;;;;;;13.80;9.15;;;;;;;;;;5063556;28;20439;-85
2022/04/13 06:07:00;;;;;;;13.65;9.52;;;;;;;;;;5083372;28;20435;-84
2022/04/13 06:09:27;;;;;;;13.83;9.30;;;;;;;;;;5082858;28;20514;-83
2022/04/13 06:11:53;;;;;;;11.63;9.15;;;;;;;;;;5080654;28;20466;-83
2022/04/13 06:14:21;;;;;;;14.90;9.83;;;;;;;;;;5082284;28;20471;-82
2022/04/13 06:16:47;;;;;;;14.48;9.70;;;;;;;;;;5082275;28;20929;-82
2022/04/13 06:19:13;;;;;;;12.40;10.10;;;;;;;;;;5080593;28;20515;-83
2022/04/13 06:21:39;;;;;;;12.82;9.45;;;;;;;;;;5081127;28;20419;-84
2022/04/13 06:24:06;;;;;;;13.88;9.57;;;;;;;;;;5082968;28;20420;-85
2022/04/13 06:26:32;;;;;;;12.18;10.05;;;;;;;;;;5081222;28;20406;-82
2022/04/13 06:28:58;;;;;;;12.50;8.85;;;;;;;;;;5077237;28;20834;-84
2022/04/13 06:31:26;;;;;;;14.67;9.77;;;;;;;;;;5079458;28;20999;-84
2022/04/13 06:33:53;;;;;;;11.95;10.35;;;;;;;;;;5079835;28;20414;-84
2022/04/13 06:36:19;;;;;;;11.60;9.82;;;;;;;;;;5076408;28;20414;-84
2022/04/13 06:38:45;;;;;;;11.63;9.90;;;;;;;;;;5080320;28;20410;-83
2022/04/13 06:41:11;;;;;;;12.57;9.30;;;;;;;;;;5079909;28;20411;-84
2022/04/13 06:43:38;;;;;;;12.23;9.80;;;;;;;;;;5079809;28;20969;-84
2022/04/13 06:46:04;;;;;;;12.38;10.05;;;;;;;;;;5078553;28;20430;-81
2022/04/13 06:48:31;;;;;;;13.77;10.37;;;;;;;;;;5078662;28;20880;-81
2022/04/13 06:50:59;;;;;;;14.15;10.57;;;;;;;;;;5076485;28;20477;-84
2022/04/13 06:53:26;;;;;;;15.15;10.30;;;;;;;;;;5080254;28;20852;-83
2022/04/13 06:55:53;;;;;;;12.70;9.40;;;;;;;;;;5078876;28;20475;-83
2022/04/13 06:58:19;;;;;;;13.88;10.57;;;;;;;;;;5079003;28;20472;-83
2022/04/13 07:00:45;;;;;;;13.52;9.63;;;;;;;;;;5078474;28;20415;-81
2022/04/13 07:03:12;;;;;;;15.32;10.00;;;;;;;;;;5080002;28;20493;-84
2022/04/13 07:05:40;;;;;;;13.45;10.15;;;;;;;;;;5077430;28;20432;-84
2022/04/13 07:08:06;;;;;;;15.82;11.10;;;;;;;;;;5080687;28;20427;-84
2022/04/13 07:10:34;;;;;;;15.23;10.80;;;;;;;;;;5078836;28;20421;-83
2022/04/13 07:13:00;;;;;;;16.35;10.75;;;;;;;;;;5078083;28;20937;-85
2022/04/13 07:15:27;;;;;;;13.70;10.03;;;;;;;;;;5078713;28;20475;-85
2022/04/13 07:17:53;;;;;;;12.90;9.75;;;;;;;;;;5079156;28;20415;-84
2022/04/13 07:20:20;;;;;;;17.60;10.48;;;;;;;;;;5076923;28;20422;-84
2022/04/13 07:22:48;;;;;;;13.25;10.70;;;;;;;;;;5082906;28;20463;-82
2022/04/13 07:25:15;;;;;;;14.20;10.80;;;;;;;;;;5085148;28;20433;-85
2022/04/13 07:27:41;;;;;;;15.98;10.60;;;;;;;;;;5083705;28;20457;-84
2022/04/13 07:30:07;;;;;;;13.73;9.93;;;;;;;;;;5082206;28;20465;-85
2022/04/13 07:32:34;;;;;;;14.10;10.90;;;;;;;;;;5083453;28;20466;-85
2022/04/13 07:35:00;;;;;;;17.48;12.00;;;;;;;;;;5081721;28;20545;-83
2022/04/13 07:37:26;;;;;;;16.77;11.97;;;;;;;;;;5083954;28;20832;-85
2022/04/13 07:39:54;;;;;;;16.38;13.18;;;;;;;;;;5083213;28;20485;-85
2022/04/13 07:42:21;;;;;;;14.95;11.70;;;;;;;;;;5083890;28;20411;-84
2022/04/13 07:44:47;;;;;;;17.15;12.73;;;;;;;;;;5083204;28;20421;-84
2022/04/13 07:47:14;;;;;;;20.52;12.63;;;;;;;;;;5084145;28;20430;-83
2022/04/13 07:49:41;;;;;;;18.63;13.80;;;;;;;;;;5082145;28;20430;-83
2022/04/13 07:52:07;;;;;;;17.10;13.45;;;;;;;;;;5084399;28;20434;-85
2022/04/13 07:54:33;;;;;;;16.40;13.23;;;;;;;;;;5083837;28;20538;-84
2022/04/13 07:57:01;;;;;;;18.13;12.85;;;;;;;;;;5084440;28;20481;-82
2022/04/13 07:59:28;;;;;;;17.42;13.15;;;;;;;;;;5082048;28;20900;-84
2022/04/13 08:01:54;;;;;;;20.65;13.30;;;;;;;;;;5084826;28;20417;-84
2022/04/13 08:04:21;;;;;;;17.40;13.82;;;;;;;;;;5083706;28;20415;-84
2022/04/13 08:06:47;;;;;;;18.92;13.15;;;;;;;;;;5083202;28;20422;-84
2022/04/13 08:09:14;;;;;;;17.13;14.20;;;;;;;;;;5082051;28;20414;-83
2022/04/13 08:11:40;;;;;;;16.80;14.10;;;;;;;;;;5084780;28;20483;-83
2022/04/13 08:14:08;;;;;;;16.38;13.45;;;;;;;;;;5083407;28;20436;-83
2022/04/13 08:16:34;;;;;;;17.15;12.77;;;;;;;;;;5080355;28;20431;-84
2022/04/13 08:19:00;;;;;;;18.23;13.70;;;;;;;;;;5081974;28;20461;-83
2022/04/13 08:21:26;;;;;;;16.33;14.50;;;;;;;;;;5080374;28;20422;-84
2022/04/13 08:23:53;;;;;;;17.27;15.30;;;;;;;;;;5081602;28;20414;-83
2022/04/13 08:26:19;;;;;;;16.67;14.20;;;;;;;;;;5081692;28;20417;-85
2022/04/13 08:28:45;;;;;;;20.48;14.02;;;;;;;;;;5079868;28;20428;-83
2022/04/13 08:31:13;;;;;;;16.63;13.25;;;;;;;;;;5081911;28;20419;-85
2022/04/13 08:33:39;;;;;;;18.48;14.15;;;;;;;;;;5078541;28;20824;-85
2022/04/13 08:36:05;;;;;;;16.13;14.00;;;;;;;;;;5079896;28;20431;-82
2022/04/13 08:38:32;;;;;;;16.83;14.35;;;;;;;;;;5081436;28;20485;-84
2022/04/13 08:40:59;;;;;;;16.23;13.47;;;;;;;;;;5083112;28;20419;-83
2022/04/13 08:43:27;;;;;;;19.53;14.47;;;;;;;;;;5084311;28;21056;-83
2022/04/13 08:45:54;;;;;;;17.08;13.77;;;;;;;;;;5082120;28;20418;-84
2022/04/13 08:48:23;;;;;;;18.80;13.73;;;;;;;;;;5083208;28;20880;-83
2022/04/13 08:50:51;;;;;;;18.67;14.48;;;;;;;;;;5081481;28;20846;-83
2022/04/13 08:53:20;;;;;;;17.60;14.00;;;;;;;;;;5081087;28;20459;-82
2022/04/13 08:55:47;;;;;;;17.80;13.88;;;;;;;;;;5082158;28;20479;-83
2022/04/13 08:58:19;;;;;;;18.55;13.70;;;;;;;;;;5084144;28;20451;-83
2022/04/13 09:00:48;;;;;;;18.35;14.35;;;;;;;;;;5082446;28;20516;-83
2022/04/13 09:03:19;;;;;;;19.60;14.80;;;;;;;;;;5081720;28;20446;-83
2022/04/13 09:05:49;;;;;;;19.80;14.90;;;;;;;;;;5082572;28;20411;-83
2022/04/13 09:08:18;;;;;;;18.30;15.10;;;;;;;;;;5081014;28;20430;-84
2022/04/13 09:10:44;;;;;;;18.02;14.95;;;;;;;;;;5083098;28;20427;-79
2022/04/13 09:13:11;;;;;;;21.73;14.93;;;;;;;;;;5084368;28;20423;-82
2022/04/13 09:15:38;;;;;;;19.58;16.00;;;;;;;;;;5082519;28;20414;-81
2022/04/13 09:18:05;;;;;;;23.60;15.48;;;;;;;;;;5083266;28;20429;-79
2022/04/13 09:20:32;;;;;;;20.60;15.23;;;;;;;;;;5081911;28;20410;-82
2022/04/13 09:23:00;;;;;;;18.80;16.60;;;;;;;;;;5084255;28;20407;-82
2022/04/13 09:25:27;;;;;;;22.92;16.45;;;;;;;;;;5084023;28;20418;-83
2022/04/13 09:27:53;;;;;;;22.73;14.88;;;;;;;;;;5084417;28;20543;-83
2022/04/13 09:30:20;;;;;;;19.55;15.15;;;;;;;;;;5082564;28;20406;-83
2022/04/13 09:32:46;;;;;;;21.23;15.70;;;;;;;;;;5082546;28;20426;-84
2022/04/13 09:35:12;;;;;;;20.48;15.55;;;;;;;;;;5079343;28;20422;-83
2022/04/13 09:37:39;;;;;;;18.70;15.63;;;;;;;;;;5083423;28;20471;-83
2022/04/13 09:40:08;;;;;;;18.95;15.50;;;;;;;;;;5082381;28;20410;-82
2022/04/13 09:42:35;;;;;;;19.90;15.60;;;;;;;;;;5085092;28;20414;-82
2022/04/13 09:45:02;;;;;;;17.88;14.43;;;;;;;;;;5082483;28;20423;-82
2022/04/13 09:47:30;;;;;;;19.33;13.93;;;;;;;;;;5083434;28;20441;-84
2022/04/13 09:49:56;;;;;;;18.05;13.73;;;;;;;;;;5079223;28;20437;-83
2022/04/13 09:52:26;;;;;;;20.88;14.80;;;;;;;;;;5083088;28;20911;-83
2022/04/13 09:54:52;;;;;;;19.33;13.48;;;;;;;;;;5082799;28;20433;-82
2022/04/13 09:57:24;;;;;;;22.45;14.25;;;;;;;;;;5083049;28;20842;-83
2022/04/13 09:59:56;;;;;;;22.00;15.10;;;;;;;;;;5080929;28;20410;-84
2022/04/13 10:02:36;;;;;;;18.90;14.38;;;;;;;;;;5079657;28;20431;-83
2022/04/13 10:05:02;;;;;;;21.15;15.50;;;;;;;;;;5081739;28;20491;-83
2022/04/13 10:07:29;;;;;;;20.47;14.73;;;;;;;;;;5084510;28;20777;-85
2022/04/13 10:09:55;;;;;;;18.53;14.60;;;;;;;;;;5081003;28;20460;-85
2022/04/13 10:12:22;;;;;;;22.67;16.40;;;;;;;;;;5082760;28;20908;-82
2022/04/13 10:14:49;;;;;;;23.15;15.77;;;;;;;;;;5082488;28;20414;-83
2022/04/13 10:17:17;;;;;;;19.23;14.70;;;;;;;;;;5082285;28;21330;-81
2022/04/13 10:19:43;;;;;;;20.33;13.85;;;;;;;;;;5082659;28;20441;-84
2022/04/13 10:22:10;;;;;;;18.23;13.90;;;;;;;;;;5082371;28;20489;-83
2022/04/13 10:24:37;;;;;;;18.37;13.53;;;;;;;;;;5083389;28;20409;-82
2022/04/13 10:27:04;;;;;;;19.00;13.40;;;;;;;;;;5083618;28;20439;-83
2022/04/13 10:29:33;;;;;;;17.83;13.48;;;;;;;;;;5083132;28;20418;-83
2022/04/13 10:32:03;;;;;;;18.47;12.83;;;;;;;;;;5084792;28;20415;-82
2022/04/13 10:34:29;;;;;;;20.13;13.63;;;;;;;;;;5083145;28;20427;-83
2022/04/13 10:36:55;;;;;;;17.80;12.77;;;;;;;;;;5084275;28;20421;-83
2022/04/13 10:39:22;;;;;;;19.35;12.40;;;;;;;;;;5083372;28;20420;-84
2022/04/13 10:41:49;;;;;;;18.27;13.10;;;;;;;;;;5083417;28;20463;-84
2022/04/13 10:44:15;;;;;;;18.42;13.38;;;;;;;;;;5085530;28;20516;-85
2022/04/13 10:46:48;;;;;;;23.05;13.60;;;;;;;;;;5083132;28;20421;-84
2022/04/13 10:49:15;;;;;;;20.60;12.68;;;;;;;;;;5083909;28;20457;-85
2022/04/13 10:51:42;;;;;;;18.85;14.45;;;;;;;;;;5083376;28;20477;-83
2022/04/13 10:54:10;;;;;;;17.02;13.20;;;;;;;;;;5085376;28;20485;-82
2022/04/13 10:56:38;;;;;;;20.90;14.23;;;;;;;;;;5085791;28;20987;-83
2022/04/13 10:59:09;;;;;;;18.90;12.30;;;;;;;;;;5089374;28;20431;-85
2022/04/13 11:01:37;;;;;;;20.73;12.68;;;;;;;;;;5089071;28;20482;-84
2022/04/13 11:04:07;;;;;;;18.92;12.70;;;;;;;;;;5086430;28;20449;-80
2022/04/13 11:06:34;;;;;;;20.88;12.40;;;;;;;;;;5088781;28;20430;-83
2022/04/13 11:09:02;;;;;;;18.30;12.10;;;;;;;;;;5088698;28;20410;-83
2022/04/13 11:11:30;;;;;;;18.00;13.02;;;;;;;;;;5088957;28;20442;-82
2022/04/13 11:13:56;;;;;;;18.17;12.90;;;;;;;;;;5088758;28;20585;-83
2022/04/13 11:16:23;;;;;;;17.40;12.35;;;;;;;;;;5086489;28;20434;-83
2022/04/13 11:19:04;;;;;;;15.73;12.30;;;;;;;;;;5086717;28;20479;-83
2022/04/13 11:21:32;;;;;;;20.20;11.48;;;;;;;;;;5088694;28;20441;-84
2022/04/13 11:23:59;;;;;;;21.90;12.75;;;;;;;;;;5088379;28;20465;-83
2022/04/13 11:26:26;;;;;;;18.38;13.00;;;;;;;;;;5087753;28;20418;-84
2022/04/13 11:29:13;;;;;;;14.93;12.80;;;;;;;;;;5088946;28;20502;-84
2022/04/13 11:32:05;;;;;;;17.50;12.50;;;;;;;;;;5089319;28;20782;-84
2022/04/13 11:34:32;;;;;;;19.23;12.70;;;;;;;;;;5087329;28;20464;-84
2022/04/13 11:37:01;;;;;;;18.77;13.05;;;;;;;;;;5088851;28;20425;-84
2022/04/13 11:39:42;;;;;;;20.42;12.45;;;;;;;;;;5091115;28;20488;-83
2022/04/13 11:42:14;;;;;;;21.73;12.30;;;;;;;;;;5091014;28;20416;-81
2022/04/13 11:44:47;;;;;;;21.80;12.40;;;;;;;;;;5085747;28;20476;-80
2022/04/13 11:47:14;;;;;;;20.52;13.48;;;;;;;;;;5084704;28;20413;-80
2022/04/13 11:49:54;;;;;;;14.40;11.27;;;;;;;;;;5082149;28;20431;-83
2022/04/13 11:52:41;;;;;;;22.52;12.57;;;;;;;;;;5084770;28;20413;-81
2022/04/13 11:58:08;;;;;;;18.63;11.73;;;;;;;;;;5049412;28;20438;-78
2022/04/13 12:00:38;;;;;;;15.95;10.60;;;;;;;;;;5031931;28;20432;-79
2022/04/13 12:03:05;;;;;;;16.15;10.00;;;;;;;;;;5052441;28;20457;-81
2022/04/13 12:05:32;;;;;;;15.52;10.30;;;;;;;;;;5049365;28;20414;-81
2022/04/13 12:08:00;;;;;;;16.43;10.93;;;;;;;;;;5052803;28;20425;-80
2022/04/13 12:10:27;;;;;;;15.80;10.38;;;;;;;;;;5049441;28;20417;-82
2022/04/13 12:12:55;;;;;;;14.97;10.90;;;;;;;;;;5050150;28;20409;-79
2022/04/13 12:15:21;;;;;;;14.45;10.23;;;;;;;;;;5053718;28;20426;-79
2022/04/13 12:17:47;;;;;;;16.37;10.70;;;;;;;;;;5051121;28;20435;-79
2022/04/13 12:20:27;;;;;;;19.33;9.70;;;;;;;;;;5052018;28;20540;-82
2022/04/13 12:22:53;;;;;;;16.75;9.70;;;;;;;;;;5054490;28;20789;-82
2022/04/13 12:25:21;;;;;;;13.98;9.80;;;;;;;;;;5052712;28;20421;-82
2022/04/13 12:28:02;;;;;;;14.23;9.93;;;;;;;;;;5050867;28;20407;-80
2022/04/13 12:30:28;;;;;;;13.18;10.52;;;;;;;;;;5049451;28;20800;-80
2022/04/13 12:32:54;;;;;;;16.20;10.30;;;;;;;;;;5051155;28;20432;-80
2022/04/13 12:35:20;;;;;;;13.80;8.98;;;;;;;;;;5052801;28;20427;-80
2022/04/13 12:37:51;;;;;;;15.68;10.55;;;;;;;;;;5052143;28;20431;-83
2022/04/13 12:40:23;;;;;;;14.13;9.50;;;;;;;;;;5049426;28;20984;-82
2022/04/13 12:42:50;;;;;;;11.52;9.00;;;;;;;;;;5050668;28;20415;-80
2022/04/13 12:45:16;;;;;;;12.50;8.52;;;;;;;;;;5053274;28;20419;-82
2022/04/13 12:47:45;;;;;;;14.45;8.10;;;;;;;;;;5051715;28;20442;-80
2022/04/13 12:50:12;;;;;;;11.43;8.10;;;;;;;;;;5049835;28;20718;-80
2022/04/13 12:52:38;;;;;;;13.93;9.32;;;;;;;;;;5052969;28;20455;-82
2022/04/13 12:55:05;;;;;;;11.88;8.60;;;;;;;;;;5051513;28;20500;-83
2022/04/13 12:57:33;;;;;;;17.58;8.98;;;;;;;;;;5055552;28;20436;-84
2022/04/13 12:59:59;;;;;;;13.48;9.27;;;;;;;;;;5050866;28;20564;-81
2022/04/13 13:02:25;;;;;;;15.57;8.80;;;;;;;;;;5050841;28;20480;-82
2022/04/13 13:04:52;;;;;;;14.85;9.52;;;;;;;;;;5050366;28;20409;-81
2022/04/13 13:07:19;;;;;;;16.02;10.00;;;;;;;;;;5052196;28;20427;-82
2022/04/13 13:09:52;;;;;;;16.33;9.80;;;;;;;;;;5051537;28;20420;-82
2022/04/13 13:12:19;;;;;;;15.10;9.95;;;;;;;;;;5052885;28;20415;-82
2022/04/13 13:14:48;;;;;;;11.75;9.30;;;;;;;;;;5051827;28;20465;-82
2022/04/13 13:17:15;;;;;;;14.07;10.52;;;;;;;;;;5048854;28;20422;-82
2022/04/13 13:19:42;;;;;;;15.82;10.50;;;;;;;;;;5051105;28;20420;-83
2022/04/13 13:22:10;;;;;;;15.93;10.05;;;;;;;;;;5054659;28;20432;-83
2022/04/13 13:24:37;;;;;;;15.38;9.35;;;;;;;;;;5049736;28;20449;-82
2022/04/13 13:27:03;;;;;;;14.50;9.30;;;;;;;;;;5052641;28;20445;-81
2022/04/13 13:29:30;;;;;;;13.90;9.60;;;;;;;;;;5048887;28;20425;-82
2022/04/13 13:31:57;;;;;;;12.73;9.38;;;;;;;;;;5052208;28;20476;-82
2022/04/13 13:34:24;;;;;;;13.48;9.68;;;;;;;;;;5049771;28;20427;-80
2022/04/13 13:36:57;;;;;;;16.65;9.70;;;;;;;;;;5050295;28;20413;-80
2022/04/13 13:39:24;;;;;;;14.88;9.10;;;;;;;;;;5050129;28;20413;-79
2022/04/13 13:42:01;;;;;;;12.15;8.95;;;;;;;;;;5049317;28;20547;-79
2022/04/13 13:44:27;;;;;;;14.70;9.40;;;;;;;;;;5048745;28;20460;-80
2022/04/13 13:46:54;;;;;;;10.37;9.03;;;;;;;;;;5050562;28;20408;-82
2022/04/13 13:49:21;;;;;;;15.43;9.30;;;;;;;;;;5048833;28;20509;-82
2022/04/13 13:51:48;;;;;;;14.00;8.98;;;;;;;;;;5051063;28;20487;-82
2022/04/13 13:54:14;;;;;;;10.98;7.25;;;;;;;;;;5050787;28;20468;-82
2022/04/13 13:56:40;;;;;;;10.27;5.93;;;;;;;;;;5051960;28;20424;-82
2022/04/13 13:59:07;;;;;;;7.28;5.45;;;;;;;;;;5052681;28;20467;-79
2022/04/13 14:01:33;;;;;;;8.53;6.20;;;;;;;;;;5051774;28;20856;-79
2022/04/13 14:03:59;;;;;;;9.43;5.10;;;;;;;;;;5049471;28;20407;-79
2022/04/13 14:06:27;;;;;;;6.28;4.90;;;;;;;;;;5048665;28;20498;-80
2022/04/13 14:08:53;;;;;;;5.60;3.92;;;;;;;;;;5048143;28;20421;-79
2022/04/13 14:11:19;;;;;;;6.60;4.18;;;;;;;;;;5048683;28;20597;-80
2022/04/13 14:13:46;;;;;;;6.25;4.05;;;;;;;;;;5051299;28;20468;-79
2022/04/13 14:16:12;;;;;;;7.22;4.82;;;;;;;;;;5045782;28;20425;-79
2022/04/13 14:18:39;;;;;;;9.15;5.80;;;;;;;;;;5049206;28;20469;-79
2022/04/13 14:21:05;;;;;;;8.80;5.25;;;;;;;;;;5051432;28;20452;-80
2022/04/13 14:23:33;;;;;;;8.48;6.22;;;;;;;;;;5049380;28;20904;-80
2022/04/13 14:25:59;;;;;;;11.67;7.50;;;;;;;;;;5049335;28;20795;-81
2022/04/13 14:28:25;;;;;;;10.37;7.00;;;;;;;;;;5048856;28;20421;-80
2022/04/13 14:30:52;;;;;;;10.33;7.70;;;;;;;;;;5047214;28;20422;-80